Time;durP1;ratioP1;P1;durP2;ratioP2;P2;SDS_P1;SDS_P2;PMS_P1;PMS_P2;Temp;Humidity;BMP_temperature;BMP_pressure;BME280_temperature;BME280_humidity;BME280_pressure;Samples;Min_cycle;Max_cycle;Signal;HPM_P1;HPM_P2
2023/03/02 00:00:34;;;;;;;16.20;6.82;;;;;;;;;;4997256;28;20033;-75
2023/03/02 00:03:00;;;;;;;14.02;7.05;;;;;;;;;;4985532;28;20061;-74
2023/03/02 00:05:27;;;;;;;14.80;6.78;;;;;;;;;;5002297;28;20050;-75
2023/03/02 00:07:53;;;;;;;16.90;6.67;;;;;;;;;;4982611;28;20046;-75
2023/03/02 00:10:19;;;;;;;13.07;6.68;;;;;;;;;;5003164;28;20303;-76
2023/03/02 00:12:44;;;;;;;15.68;7.13;;;;;;;;;;5012270;28;20034;-75
2023/03/02 00:15:10;;;;;;;14.48;6.93;;;;;;;;;;4990367;28;20064;-78
2023/03/02 00:17:36;;;;;;;13.57;6.55;;;;;;;;;;4986634;28;20037;-74
2023/03/02 00:20:11;;;;;;;12.48;6.13;;;;;;;;;;4985812;28;20129;-75
2023/03/02 00:22:41;;;;;;;13.20;6.88;;;;;;;;;;4978591;28;20401;-74
2023/03/02 00:25:07;;;;;;;13.00;6.03;;;;;;;;;;4975766;28;20034;-74
2023/03/02 00:27:33;;;;;;;16.38;6.78;;;;;;;;;;4986358;28;20040;-74
2023/03/02 00:29:59;;;;;;;12.52;6.25;;;;;;;;;;4990702;28;20061;-74
2023/03/02 00:32:24;;;;;;;11.55;6.03;;;;;;;;;;5009621;28;20038;-75
2023/03/02 00:34:50;;;;;;;14.10;7.03;;;;;;;;;;4995864;28;20046;-76
2023/03/02 00:37:16;;;;;;;17.70;6.85;;;;;;;;;;4975444;28;20045;-76
2023/03/02 00:39:41;;;;;;;15.52;6.68;;;;;;;;;;4977751;28;20034;-75
2023/03/02 00:42:07;;;;;;;15.98;6.78;;;;;;;;;;5000136;28;20130;-75
2023/03/02 00:44:32;;;;;;;14.30;6.35;;;;;;;;;;4993051;28;21311;-75
2023/03/02 00:46:58;;;;;;;15.05;6.18;;;;;;;;;;4984673;28;20046;-75
2023/03/02 00:49:23;;;;;;;13.98;6.45;;;;;;;;;;4986095;28;20085;-74
2023/03/02 00:51:48;;;;;;;13.45;6.78;;;;;;;;;;5008510;28;20038;-76
2023/03/02 00:54:14;;;;;;;13.77;6.40;;;;;;;;;;4985247;28;20034;-74
2023/03/02 00:56:39;;;;;;;14.93;6.82;;;;;;;;;;5001421;28;20065;-75
2023/03/02 00:59:09;;;;;;;10.98;5.55;;;;;;;;;;5001090;28;20041;-74
2023/03/02 01:01:36;;;;;;;14.82;6.85;;;;;;;;;;4978425;28;20038;-75
2023/03/02 01:04:01;;;;;;;12.20;6.80;;;;;;;;;;4985358;28;20473;-74
2023/03/02 01:06:27;;;;;;;12.23;6.40;;;;;;;;;;4983769;28;20141;-75
2023/03/02 01:08:52;;;;;;;13.85;7.10;;;;;;;;;;5009209;28;20117;-75
2023/03/02 01:11:19;;;;;;;14.38;7.28;;;;;;;;;;4994514;28;20042;-74
2023/03/02 01:13:45;;;;;;;14.93;7.15;;;;;;;;;;4994010;28;20034;-76
2023/03/02 01:16:11;;;;;;;13.50;7.03;;;;;;;;;;5008337;28;20041;-75
2023/03/02 01:18:37;;;;;;;15.07;7.22;;;;;;;;;;5009373;28;20034;-74
2023/03/02 01:21:05;;;;;;;15.82;7.38;;;;;;;;;;4990582;28;20041;-74
2023/03/02 01:23:30;;;;;;;16.40;7.13;;;;;;;;;;4991105;28;20038;-74
2023/03/02 01:25:56;;;;;;;17.30;6.65;;;;;;;;;;4974172;28;20040;-76
2023/03/02 01:28:21;;;;;;;13.75;6.53;;;;;;;;;;4984615;28;20094;-76
2023/03/02 01:30:47;;;;;;;14.45;6.85;;;;;;;;;;5006346;28;20069;-75
2023/03/02 01:33:13;;;;;;;13.95;7.30;;;;;;;;;;5005955;28;20114;-75
2023/03/02 01:35:38;;;;;;;15.75;6.68;;;;;;;;;;5000327;28;20566;-76
2023/03/02 01:38:04;;;;;;;14.20;6.80;;;;;;;;;;4990678;28;20552;-76
2023/03/02 01:40:29;;;;;;;14.32;7.13;;;;;;;;;;4997597;28;20057;-76
2023/03/02 01:42:57;;;;;;;12.10;6.63;;;;;;;;;;4992354;28;20069;-76
2023/03/02 01:45:45;;;;;;;14.48;7.07;;;;;;;;;;4989924;28;20038;-76
2023/03/02 01:48:11;;;;;;;18.02;6.80;;;;;;;;;;4982730;28;20033;-76
2023/03/02 01:50:37;;;;;;;16.63;7.03;;;;;;;;;;4977238;28;20104;-76
2023/03/02 01:53:02;;;;;;;17.23;7.57;;;;;;;;;;4978922;28;20038;-75
2023/03/02 01:55:30;;;;;;;14.25;6.90;;;;;;;;;;5000985;28;20371;-75
2023/03/02 01:57:57;;;;;;;16.02;7.40;;;;;;;;;;4996899;28;20034;-75
2023/03/02 02:00:29;;;;;;;20.05;8.00;;;;;;;;;;4992063;28;20461;-75
2023/03/02 02:03:07;;;;;;;15.55;6.97;;;;;;;;;;4991826;28;20038;-76
2023/03/02 02:05:33;;;;;;;15.95;7.53;;;;;;;;;;5000493;28;20096;-76
2023/03/02 02:07:58;;;;;;;14.77;6.88;;;;;;;;;;4978132;28;20054;-76
2023/03/02 02:10:24;;;;;;;15.00;7.30;;;;;;;;;;4995475;28;20057;-76
2023/03/02 02:12:49;;;;;;;15.27;7.25;;;;;;;;;;4994624;28;20383;-76
2023/03/02 02:15:15;;;;;;;16.48;7.28;;;;;;;;;;4978429;28;20038;-76
2023/03/02 02:17:41;;;;;;;15.55;7.18;;;;;;;;;;4995359;28;20083;-76
2023/03/02 02:20:18;;;;;;;13.98;7.20;;;;;;;;;;4990744;28;20498;-76
2023/03/02 02:22:55;;;;;;;12.90;6.78;;;;;;;;;;4987403;28;20640;-76
2023/03/02 02:25:52;;;;;;;17.35;7.82;;;;;;;;;;5007415;28;20046;-76
2023/03/02 02:28:21;;;;;;;16.87;7.70;;;;;;;;;;5008641;28;20035;-76
2023/03/02 02:30:49;;;;;;;15.20;7.18;;;;;;;;;;4984110;28;20051;-76
2023/03/02 02:33:18;;;;;;;14.43;7.18;;;;;;;;;;4977024;28;20041;-75
2023/03/02 02:35:45;;;;;;;14.13;6.63;;;;;;;;;;4990066;28;20037;-75
2023/03/02 02:38:13;;;;;;;15.00;7.60;;;;;;;;;;4999567;28;20394;-75
2023/03/02 02:40:47;;;;;;;11.68;6.65;;;;;;;;;;4993727;28;20031;-75
2023/03/02 02:43:14;;;;;;;11.23;6.75;;;;;;;;;;4974785;28;20149;-76
2023/03/02 02:45:40;;;;;;;17.40;8.00;;;;;;;;;;4993000;28;20788;-76
2023/03/02 02:48:10;;;;;;;15.02;7.88;;;;;;;;;;4991950;28;20281;-75
2023/03/02 02:50:36;;;;;;;15.38;7.30;;;;;;;;;;4975598;28;20046;-75
2023/03/02 02:53:11;;;;;;;13.90;7.32;;;;;;;;;;4999221;28;20441;-76
2023/03/02 02:55:36;;;;;;;16.05;7.68;;;;;;;;;;4994876;28;20037;-75
2023/03/02 02:58:17;;;;;;;13.77;7.28;;;;;;;;;;4988172;28;20398;-74
2023/03/02 03:00:43;;;;;;;17.27;7.88;;;;;;;;;;4986870;28;20037;-76
2023/03/02 03:03:32;;;;;;;17.13;7.63;;;;;;;;;;4985581;28;20473;-75
2023/03/02 03:06:03;;;;;;;18.50;8.23;;;;;;;;;;5008916;28;20030;-74
2023/03/02 03:08:44;;;;;;;15.88;7.97;;;;;;;;;;5004285;28;21412;-76
2023/03/02 03:11:14;;;;;;;15.25;7.63;;;;;;;;;;5009783;28;20469;-75
2023/03/02 03:13:41;;;;;;;17.30;7.63;;;;;;;;;;5003886;28;20030;-77
2023/03/02 03:16:09;;;;;;;16.93;8.17;;;;;;;;;;4979215;28;20065;-75
2023/03/02 03:18:34;;;;;;;14.30;7.40;;;;;;;;;;4987064;28;20520;-75
2023/03/02 03:21:00;;;;;;;17.98;7.60;;;;;;;;;;4982374;28;20033;-76
2023/03/02 03:23:25;;;;;;;14.95;7.95;;;;;;;;;;5004105;28;20034;-76
2023/03/02 03:25:51;;;;;;;16.95;8.52;;;;;;;;;;4979850;28;20038;-76
2023/03/02 03:28:17;;;;;;;15.82;7.80;;;;;;;;;;4994630;28;20049;-76
2023/03/02 03:30:43;;;;;;;16.67;7.78;;;;;;;;;;4998154;28;20096;-76
2023/03/02 03:33:09;;;;;;;17.40;8.40;;;;;;;;;;4995550;28;20042;-76
2023/03/02 03:35:37;;;;;;;15.32;8.00;;;;;;;;;;4995511;28;20037;-77
2023/03/02 03:38:04;;;;;;;16.42;8.57;;;;;;;;;;4994688;28;21483;-76
2023/03/02 03:40:33;;;;;;;15.73;7.75;;;;;;;;;;4995528;28;20034;-76
2023/03/02 03:43:02;;;;;;;16.52;8.25;;;;;;;;;;4987701;28;20125;-76
2023/03/02 03:45:28;;;;;;;16.00;8.18;;;;;;;;;;4994810;28;20035;-76
2023/03/02 03:47:54;;;;;;;18.17;8.15;;;;;;;;;;4994660;28;20043;-76
2023/03/02 03:50:19;;;;;;;16.73;8.75;;;;;;;;;;5009562;28;20039;-75
2023/03/02 03:52:44;;;;;;;17.27;8.27;;;;;;;;;;4980859;28;20038;-76
2023/03/02 03:55:11;;;;;;;17.02;8.00;;;;;;;;;;4995814;28;20049;-76
2023/03/02 03:57:37;;;;;;;14.75;7.65;;;;;;;;;;4985717;28;20038;-76
2023/03/02 04:00:05;;;;;;;16.33;8.07;;;;;;;;;;4986534;28;20049;-75
2023/03/02 04:02:31;;;;;;;17.73;8.55;;;;;;;;;;4980057;28;20372;-75
2023/03/02 04:05:05;;;;;;;14.90;7.50;;;;;;;;;;4985635;28;20037;-76
2023/03/02 04:07:33;;;;;;;16.50;7.85;;;;;;;;;;4982206;28;20038;-75
2023/03/02 04:10:02;;;;;;;16.02;7.43;;;;;;;;;;4984315;28;20501;-74
2023/03/02 04:12:27;;;;;;;17.23;8.25;;;;;;;;;;5008394;28;20489;-75
2023/03/02 04:14:53;;;;;;;12.95;7.03;;;;;;;;;;4995547;28;20041;-76
2023/03/02 04:17:18;;;;;;;15.85;7.32;;;;;;;;;;4985397;28;20037;-76
2023/03/02 04:19:44;;;;;;;15.30;7.97;;;;;;;;;;4997098;28;20034;-75
2023/03/02 04:22:09;;;;;;;17.92;8.50;;;;;;;;;;4985318;28;20145;-75
2023/03/02 04:24:35;;;;;;;16.70;8.88;;;;;;;;;;4985568;28;20052;-75
2023/03/02 04:27:00;;;;;;;15.63;7.95;;;;;;;;;;5007868;28;20038;-75
2023/03/02 04:29:26;;;;;;;17.13;7.65;;;;;;;;;;4991771;28;20383;-76
2023/03/02 04:31:51;;;;;;;16.35;7.60;;;;;;;;;;4986146;28;20367;-75
2023/03/02 04:34:17;;;;;;;18.27;8.05;;;;;;;;;;4985980;28;20038;-75
2023/03/02 04:36:42;;;;;;;14.75;7.40;;;;;;;;;;4991532;28;20030;-76
2023/03/02 04:39:08;;;;;;;18.02;8.32;;;;;;;;;;5000321;28;20034;-76
2023/03/02 04:41:34;;;;;;;18.55;8.07;;;;;;;;;;4974630;28;20509;-75
2023/03/02 04:43:59;;;;;;;14.32;7.45;;;;;;;;;;4979331;28;20034;-76
2023/03/02 04:46:26;;;;;;;18.90;8.15;;;;;;;;;;5000583;28;20490;-75
2023/03/02 04:48:52;;;;;;;14.90;7.97;;;;;;;;;;4978970;28;20038;-76
2023/03/02 04:51:23;;;;;;;17.13;8.23;;;;;;;;;;4984656;28;20053;-74
2023/03/02 04:53:56;;;;;;;18.05;8.73;;;;;;;;;;4976414;28;20064;-77
2023/03/02 04:56:21;;;;;;;17.52;8.48;;;;;;;;;;4996002;28;20453;-77
2023/03/02 04:58:47;;;;;;;15.85;8.38;;;;;;;;;;4993156;28;20046;-77
2023/03/02 05:01:14;;;;;;;15.55;7.70;;;;;;;;;;4976070;28;20034;-77
2023/03/02 05:03:40;;;;;;;17.95;8.32;;;;;;;;;;4980790;28;20053;-77
2023/03/02 05:06:05;;;;;;;15.75;8.30;;;;;;;;;;4984150;28;20053;-77
2023/03/02 05:08:31;;;;;;;18.05;7.97;;;;;;;;;;4977580;28;20069;-77
2023/03/02 05:10:57;;;;;;;15.55;8.07;;;;;;;;;;4984394;28;20053;-77
2023/03/02 05:13:25;;;;;;;17.05;9.00;;;;;;;;;;5001171;28;20429;-77
2023/03/02 05:15:51;;;;;;;18.13;8.63;;;;;;;;;;4989229;28;20058;-76
2023/03/02 05:18:18;;;;;;;16.25;8.43;;;;;;;;;;5005797;28;20081;-77
2023/03/02 05:20:44;;;;;;;16.95;7.90;;;;;;;;;;5001877;28;20048;-76
2023/03/02 05:23:10;;;;;;;20.00;8.48;;;;;;;;;;4984192;28;20417;-77
2023/03/02 05:25:37;;;;;;;16.98;8.90;;;;;;;;;;4977899;28;20113;-77
2023/03/02 05:28:03;;;;;;;18.05;9.05;;;;;;;;;;4991990;28;20038;-76
2023/03/02 05:30:31;;;;;;;18.08;8.80;;;;;;;;;;5000263;28;20034;-77
2023/03/02 05:32:57;;;;;;;15.38;8.30;;;;;;;;;;5001488;28;20404;-76
2023/03/02 05:35:23;;;;;;;20.50;8.77;;;;;;;;;;5006450;28;20034;-79
2023/03/02 05:37:49;;;;;;;19.25;8.75;;;;;;;;;;4988446;28;20038;-80
2023/03/02 05:40:18;;;;;;;17.05;9.07;;;;;;;;;;4994901;28;20173;-79
2023/03/02 05:42:44;;;;;;;20.05;9.07;;;;;;;;;;4990893;28;20044;-79
2023/03/02 05:45:17;;;;;;;20.25;9.98;;;;;;;;;;4984921;28;20398;-78
2023/03/02 05:47:42;;;;;;;20.55;9.50;;;;;;;;;;4986037;28;20450;-78
2023/03/02 05:50:08;;;;;;;20.23;9.30;;;;;;;;;;4976245;28;20068;-78
2023/03/02 05:52:34;;;;;;;18.25;9.50;;;;;;;;;;4983310;28;20037;-77
2023/03/02 05:54:59;;;;;;;19.17;9.65;;;;;;;;;;4999443;28;20520;-80
2023/03/02 05:57:24;;;;;;;21.00;9.57;;;;;;;;;;4999530;28;20023;-79
2023/03/02 05:59:50;;;;;;;21.30;10.10;;;;;;;;;;4982932;28;20042;-78
2023/03/02 06:02:16;;;;;;;23.15;10.45;;;;;;;;;;4982428;28;20065;-80
2023/03/02 06:04:43;;;;;;;23.23;10.40;;;;;;;;;;4991386;28;20128;-78
2023/03/02 06:07:11;;;;;;;23.15;11.00;;;;;;;;;;4982776;28;20051;-78
2023/03/02 06:09:40;;;;;;;21.50;10.30;;;;;;;;;;4978473;28;20042;-78
2023/03/02 06:12:06;;;;;;;20.02;10.05;;;;;;;;;;4976684;28;20145;-78
2023/03/02 06:14:32;;;;;;;21.63;9.70;;;;;;;;;;4991830;28;20088;-78
2023/03/02 06:16:58;;;;;;;20.50;11.07;;;;;;;;;;4983214;28;20034;-78
2023/03/02 06:19:23;;;;;;;24.55;11.73;;;;;;;;;;4989469;28;20048;-78
2023/03/02 06:21:48;;;;;;;22.30;10.55;;;;;;;;;;4982430;28;20042;-79
2023/03/02 06:24:14;;;;;;;17.98;9.75;;;;;;;;;;4982138;28;20046;-78
2023/03/02 06:26:39;;;;;;;21.52;10.30;;;;;;;;;;5009683;28;20037;-76
2023/03/02 06:29:06;;;;;;;19.92;10.48;;;;;;;;;;5004124;28;20038;-76
2023/03/02 06:31:32;;;;;;;26.50;11.55;;;;;;;;;;5003050;28;20044;-76
2023/03/02 06:33:57;;;;;;;22.25;10.93;;;;;;;;;;4978778;28;20034;-77
2023/03/02 06:36:23;;;;;;;20.85;11.13;;;;;;;;;;5004149;28;20084;-77
2023/03/02 06:38:48;;;;;;;23.63;12.05;;;;;;;;;;4984823;28;20053;-77
2023/03/02 06:41:14;;;;;;;23.75;11.80;;;;;;;;;;5013056;28;20496;-76
2023/03/02 06:43:39;;;;;;;22.95;12.02;;;;;;;;;;4987080;28;20038;-84
2023/03/02 06:46:05;;;;;;;25.15;11.40;;;;;;;;;;5010988;28;20223;-83
2023/03/02 06:48:30;;;;;;;24.80;11.90;;;;;;;;;;4979201;28;20041;-82
2023/03/02 06:50:55;;;;;;;26.73;11.65;;;;;;;;;;4986228;28;20470;-84
2023/03/02 06:53:22;;;;;;;26.42;12.18;;;;;;;;;;4994642;28;20042;-84
2023/03/02 06:55:48;;;;;;;23.45;11.63;;;;;;;;;;4987695;28;20749;-77
2023/03/02 06:58:13;;;;;;;23.73;12.30;;;;;;;;;;4987993;28;20049;-76
2023/03/02 07:00:38;;;;;;;25.75;11.82;;;;;;;;;;4997831;28;20038;-76
2023/03/02 07:03:04;;;;;;;26.45;12.25;;;;;;;;;;5003641;28;20041;-76
2023/03/02 07:05:32;;;;;;;30.30;12.90;;;;;;;;;;5002768;28;20050;-76
2023/03/02 07:07:58;;;;;;;28.67;12.88;;;;;;;;;;4995516;28;20569;-76
2023/03/02 07:10:23;;;;;;;26.70;13.50;;;;;;;;;;4978146;28;20041;-77
2023/03/02 07:12:49;;;;;;;27.92;14.43;;;;;;;;;;4987149;28;20490;-77
2023/03/02 07:15:15;;;;;;;30.50;14.13;;;;;;;;;;4987427;28;20034;-76
2023/03/02 07:17:42;;;;;;;29.55;14.25;;;;;;;;;;4987084;28;20397;-75
2023/03/02 07:20:14;;;;;;;26.10;13.38;;;;;;;;;;4994945;28;20435;-75
2023/03/02 07:22:39;;;;;;;28.25;13.48;;;;;;;;;;4981540;28;20045;-76
2023/03/02 07:25:05;;;;;;;27.23;12.95;;;;;;;;;;4978934;28;20499;-75
2023/03/02 07:27:31;;;;;;;28.63;13.88;;;;;;;;;;4992753;28;20046;-75
2023/03/02 07:29:56;;;;;;;29.73;13.18;;;;;;;;;;4977312;28;20077;-76
2023/03/02 07:32:22;;;;;;;31.63;13.88;;;;;;;;;;4985670;28;20583;-76
2023/03/02 07:34:47;;;;;;;30.98;14.30;;;;;;;;;;5001321;28;20060;-77
2023/03/02 07:37:12;;;;;;;34.90;13.43;;;;;;;;;;4980532;28;20173;-76
2023/03/02 07:39:38;;;;;;;28.48;13.00;;;;;;;;;;4975962;28;20050;-76
2023/03/02 07:42:05;;;;;;;28.65;14.07;;;;;;;;;;4982420;28;20046;-76
2023/03/02 07:44:31;;;;;;;30.23;14.63;;;;;;;;;;4995080;28;20034;-76
2023/03/02 07:46:57;;;;;;;29.98;14.15;;;;;;;;;;4978100;28;20038;-76
2023/03/02 07:49:23;;;;;;;28.88;13.93;;;;;;;;;;4996128;28;20030;-76
2023/03/02 07:51:48;;;;;;;29.90;13.32;;;;;;;;;;4978555;28;20402;-75
2023/03/02 07:54:14;;;;;;;29.90;14.60;;;;;;;;;;5003796;28;20034;-76
2023/03/02 07:56:39;;;;;;;29.27;13.07;;;;;;;;;;4995253;28;20521;-76
2023/03/02 07:59:05;;;;;;;40.88;15.00;;;;;;;;;;4986548;28;20440;-76
2023/03/02 08:01:30;;;;;;;35.25;14.85;;;;;;;;;;4985705;28;20038;-76
2023/03/02 08:03:56;;;;;;;30.42;13.88;;;;;;;;;;4986059;28;20092;-76
2023/03/02 08:06:21;;;;;;;29.27;13.55;;;;;;;;;;5008246;28;20046;-77
2023/03/02 08:08:47;;;;;;;26.75;13.02;;;;;;;;;;5008909;28;20563;-76
2023/03/02 08:11:15;;;;;;;26.75;12.48;;;;;;;;;;4976955;28;20041;-77
2023/03/02 08:13:41;;;;;;;26.38;11.93;;;;;;;;;;4986084;28;20041;-76
2023/03/02 08:16:08;;;;;;;22.67;11.70;;;;;;;;;;4992547;28;20469;-76
2023/03/02 08:18:34;;;;;;;24.33;11.63;;;;;;;;;;4985708;28;20034;-76
2023/03/02 08:20:59;;;;;;;27.05;12.02;;;;;;;;;;4982671;28;20038;-74
2023/03/02 08:23:25;;;;;;;26.08;12.70;;;;;;;;;;4976515;28;20044;-75
2023/03/02 08:25:52;;;;;;;27.48;12.57;;;;;;;;;;4980022;28;20038;-76
2023/03/02 08:28:18;;;;;;;28.45;12.63;;;;;;;;;;5007576;28;20030;-75
2023/03/02 08:30:54;;;;;;;22.35;11.50;;;;;;;;;;4990908;28;20141;-76
2023/03/02 08:33:19;;;;;;;24.55;11.60;;;;;;;;;;4993326;28;20056;-75
2023/03/02 08:36:03;;;;;;;22.75;12.13;;;;;;;;;;5001342;28;20041;-75
2023/03/02 08:38:28;;;;;;;26.20;12.15;;;;;;;;;;4995098;28;20085;-75
2023/03/02 08:40:54;;;;;;;23.70;12.05;;;;;;;;;;4990962;28;20042;-75
2023/03/02 08:43:20;;;;;;;23.25;11.38;;;;;;;;;;5007954;28;20367;-76
2023/03/02 08:45:53;;;;;;;24.60;12.23;;;;;;;;;;4992659;28;20485;-76
2023/03/02 08:48:19;;;;;;;21.98;11.75;;;;;;;;;;4998047;28;20906;-76
2023/03/02 08:50:57;;;;;;;23.02;12.38;;;;;;;;;;4992284;28;20105;-75
2023/03/02 08:53:22;;;;;;;23.88;12.60;;;;;;;;;;4997142;28;20512;-75
2023/03/02 08:55:48;;;;;;;24.38;12.80;;;;;;;;;;4990233;28;20034;-75
2023/03/02 08:58:13;;;;;;;20.88;12.07;;;;;;;;;;5002832;28;20030;-75
2023/03/02 09:00:39;;;;;;;19.35;10.25;;;;;;;;;;5001035;28;20161;-75
2023/03/02 09:03:04;;;;;;;19.80;10.82;;;;;;;;;;4992884;28;20046;-75
2023/03/02 09:05:30;;;;;;;22.73;11.88;;;;;;;;;;4988625;28;20560;-75
2023/03/02 09:07:55;;;;;;;19.42;10.73;;;;;;;;;;4985522;28;20061;-76
2023/03/02 09:10:20;;;;;;;22.58;12.50;;;;;;;;;;4984680;28;20029;-76
2023/03/02 09:12:46;;;;;;;21.02;11.50;;;;;;;;;;4976699;28;20033;-78
2023/03/02 09:15:11;;;;;;;22.83;11.68;;;;;;;;;;4993166;28;20490;-75
2023/03/02 09:17:36;;;;;;;25.13;13.27;;;;;;;;;;4982994;28;20030;-75
2023/03/02 09:20:02;;;;;;;27.63;13.27;;;;;;;;;;4990523;28;20038;-75
2023/03/02 09:22:29;;;;;;;21.95;12.05;;;;;;;;;;4990422;28;20151;-75
2023/03/02 09:24:54;;;;;;;23.02;13.38;;;;;;;;;;5009466;28;20406;-75
2023/03/02 09:27:19;;;;;;;23.30;12.05;;;;;;;;;;5001420;28;20033;-75
2023/03/02 09:29:45;;;;;;;26.83;12.60;;;;;;;;;;5000974;28;20508;-75
2023/03/02 09:32:12;;;;;;;25.23;13.55;;;;;;;;;;4983793;28;20038;-75
2023/03/02 09:34:37;;;;;;;28.00;12.88;;;;;;;;;;4996025;28;20457;-75
2023/03/02 09:37:03;;;;;;;26.08;12.88;;;;;;;;;;5000244;28;20177;-75
2023/03/02 09:39:28;;;;;;;30.38;13.88;;;;;;;;;;4985226;28;20394;-75
2023/03/02 09:42:04;;;;;;;25.58;13.00;;;;;;;;;;4976612;28;20038;-75
2023/03/02 09:44:50;;;;;;;30.05;13.00;;;;;;;;;;4990516;28;20450;-75
2023/03/02 09:47:22;;;;;;;30.10;13.67;;;;;;;;;;5007772;28;20393;-76
2023/03/02 09:50:02;;;;;;;32.13;14.38;;;;;;;;;;5006605;28;20057;-76
2023/03/02 09:52:35;;;;;;;30.05;13.35;;;;;;;;;;4991404;28;20043;-75
2023/03/02 09:55:21;;;;;;;26.10;12.95;;;;;;;;;;4984748;28;20046;-77
2023/03/02 09:57:47;;;;;;;29.53;12.87;;;;;;;;;;4979677;28;20048;-77
2023/03/02 10:00:15;;;;;;;26.13;13.88;;;;;;;;;;4985347;28;20030;-75
2023/03/02 10:02:44;;;;;;;28.58;13.93;;;;;;;;;;5009318;28;20041;-75
2023/03/02 10:05:16;;;;;;;31.33;14.18;;;;;;;;;;4993623;28;20039;-75
2023/03/02 10:07:42;;;;;;;29.90;14.48;;;;;;;;;;4989094;28;20557;-74
2023/03/02 10:10:36;;;;;;;27.13;13.43;;;;;;;;;;4988064;28;20034;-75
2023/03/02 10:13:15;;;;;;;28.70;13.38;;;;;;;;;;5010839;28;20039;-75
2023/03/02 10:15:58;;;;;;;31.20;14.63;;;;;;;;;;4995465;28;20039;-74
2023/03/02 10:18:43;;;;;;;30.27;14.52;;;;;;;;;;4995898;28;20531;-76
2023/03/02 10:21:36;;;;;;;29.35;14.30;;;;;;;;;;4994746;28;20390;-74
2023/03/02 10:24:35;;;;;;;33.60;14.90;;;;;;;;;;5010581;28;20367;-75
2023/03/02 10:27:17;;;;;;;30.95;14.55;;;;;;;;;;4993371;28;20477;-75
2023/03/02 10:30:18;;;;;;;26.90;14.10;;;;;;;;;;4996204;28;20073;-75
2023/03/02 10:32:50;;;;;;;31.98;15.48;;;;;;;;;;4979705;28;20050;-75
2023/03/02 10:35:22;;;;;;;31.40;14.63;;;;;;;;;;4996265;28;20521;-75
2023/03/02 10:37:50;;;;;;;32.17;15.25;;;;;;;;;;5000371;28;20502;-76
2023/03/02 10:40:32;;;;;;;28.73;13.70;;;;;;;;;;4994546;28;20038;-75
2023/03/02 10:42:58;;;;;;;29.27;13.98;;;;;;;;;;4980201;28;20038;-74
2023/03/02 10:45:30;;;;;;;28.83;14.25;;;;;;;;;;4979550;28;20039;-75
2023/03/02 10:48:04;;;;;;;28.20;14.05;;;;;;;;;;4980667;28;20177;-76
2023/03/02 10:50:30;;;;;;;24.50;12.88;;;;;;;;;;4985677;28;20088;-75
2023/03/02 10:52:55;;;;;;;25.58;13.10;;;;;;;;;;4987861;28;20045;-75
2023/03/02 10:55:21;;;;;;;25.35;12.93;;;;;;;;;;5002959;28;20038;-75
2023/03/02 10:57:59;;;;;;;23.13;12.65;;;;;;;;;;4994038;28;20046;-77
2023/03/02 11:00:27;;;;;;;22.60;11.88;;;;;;;;;;4993176;28;20489;-74
2023/03/02 11:02:55;;;;;;;22.65;13.30;;;;;;;;;;5003445;28;20038;-75
2023/03/02 11:05:36;;;;;;;22.52;12.77;;;;;;;;;;4996269;28;20049;-75
2023/03/02 11:08:17;;;;;;;22.67;12.40;;;;;;;;;;5003618;28;20054;-75
2023/03/02 11:10:58;;;;;;;21.25;11.77;;;;;;;;;;4986028;28;20454;-75
2023/03/02 11:13:31;;;;;;;22.85;12.35;;;;;;;;;;4991136;28;20418;-76
2023/03/02 11:15:59;;;;;;;22.58;12.13;;;;;;;;;;5009376;28;20070;-76
2023/03/02 11:18:36;;;;;;;23.10;12.77;;;;;;;;;;5007647;28;20120;-76
2023/03/02 11:21:34;;;;;;;21.95;12.55;;;;;;;;;;4995497;28;20515;-75
2023/03/02 11:24:10;;;;;;;19.48;11.85;;;;;;;;;;4994096;28;20493;-76
2023/03/02 11:26:49;;;;;;;21.33;11.90;;;;;;;;;;5003199;28;20042;-75
2023/03/02 11:29:42;;;;;;;18.85;11.73;;;;;;;;;;4980083;28;20038;-76
2023/03/02 11:32:07;;;;;;;18.30;11.63;;;;;;;;;;4992417;28;20046;-75
2023/03/02 11:34:45;;;;;;;17.85;11.38;;;;;;;;;;5008651;28;20065;-76
2023/03/02 11:37:30;;;;;;;19.50;11.48;;;;;;;;;;5007314;28;20526;-76
2023/03/02 11:40:11;;;;;;;17.00;10.95;;;;;;;;;;5002206;28;20180;-76
2023/03/02 11:42:42;;;;;;;16.80;10.85;;;;;;;;;;5012400;28;20104;-76
2023/03/02 11:45:14;;;;;;;16.85;10.57;;;;;;;;;;4993042;28;20069;-76
2023/03/02 11:47:58;;;;;;;16.65;10.95;;;;;;;;;;4992435;28;20117;-76
2023/03/02 11:50:24;;;;;;;13.73;9.70;;;;;;;;;;5009168;28;20386;-77
2023/03/02 11:52:56;;;;;;;15.40;10.15;;;;;;;;;;5011210;28;20080;-76
2023/03/02 11:55:23;;;;;;;15.85;10.90;;;;;;;;;;4973992;28;20124;-76
2023/03/02 11:57:53;;;;;;;14.40;10.20;;;;;;;;;;4995632;28;20041;-76
2023/03/02 12:00:21;;;;;;;16.20;10.40;;;;;;;;;;4978168;28;20038;-76
2023/03/02 12:02:57;;;;;;;14.73;10.38;;;;;;;;;;4991164;28;20128;-77
2023/03/02 12:05:26;;;;;;;14.95;9.90;;;;;;;;;;5002788;28;20397;-76
2023/03/02 12:08:00;;;;;;;14.48;10.15;;;;;;;;;;4995198;28;20132;-77
2023/03/02 12:10:41;;;;;;;13.48;9.85;;;;;;;;;;4979952;28;20093;-76
2023/03/02 12:13:28;;;;;;;13.20;9.02;;;;;;;;;;4997096;28;20050;-76
2023/03/02 12:15:56;;;;;;;13.90;9.20;;;;;;;;;;4992901;28;20053;-76
2023/03/02 12:18:21;;;;;;;14.43;9.23;;;;;;;;;;4979567;28;20533;-76
2023/03/02 12:21:10;;;;;;;14.90;10.18;;;;;;;;;;5009463;28;20042;-76
2023/03/02 12:23:47;;;;;;;16.80;10.02;;;;;;;;;;5010243;28;20040;-75
2023/03/02 12:26:19;;;;;;;15.45;10.10;;;;;;;;;;5008907;28;20030;-74
2023/03/02 12:29:02;;;;;;;16.08;10.23;;;;;;;;;;4994883;28;20046;-75
2023/03/02 12:31:52;;;;;;;20.15;10.85;;;;;;;;;;4993130;28;20521;-75
2023/03/02 12:34:23;;;;;;;17.98;10.77;;;;;;;;;;4980876;28;20516;-77
2023/03/02 12:36:51;;;;;;;17.52;10.50;;;;;;;;;;5007779;28;20038;-77
2023/03/02 12:39:31;;;;;;;18.75;10.40;;;;;;;;;;4994123;28;20037;-76
2023/03/02 12:42:15;;;;;;;16.63;10.18;;;;;;;;;;5006152;28;20081;-75
2023/03/02 12:45:13;;;;;;;16.42;10.07;;;;;;;;;;4995293;28;20034;-75
2023/03/02 12:47:43;;;;;;;17.27;10.00;;;;;;;;;;4963929;28;20037;-75
2023/03/02 12:50:20;;;;;;;17.40;10.20;;;;;;;;;;4982256;28;20814;-81
2023/03/02 12:52:58;;;;;;;;;;;;;;;;;;4994804;28;20050;-74
2023/03/02 12:55:23;;;;;;;18.48;9.73;;;;;;;;;;5001077;28;19921;-75
2023/03/02 12:57:51;;;;;;;20.85;9.77;;;;;;;;;;4983279;28;20099;-74
2023/03/02 13:00:20;;;;;;;17.38;10.07;;;;;;;;;;4983233;28;20153;-76
2023/03/02 13:02:48;;;;;;;18.95;10.48;;;;;;;;;;4993474;28;20052;-75
2023/03/02 13:05:23;;;;;;;23.05;10.48;;;;;;;;;;4980275;28;20030;-74
2023/03/02 13:07:54;;;;;;;17.00;9.25;;;;;;;;;;5007269;28;20049;-75
2023/03/02 13:10:26;;;;;;;18.70;10.38;;;;;;;;;;4994172;28;20438;-73
2023/03/02 13:12:51;;;;;;;17.77;9.60;;;;;;;;;;5005819;28;20042;-74
2023/03/02 13:15:18;;;;;;;17.10;9.90;;;;;;;;;;5007554;28;20053;-75
2023/03/02 13:17:45;;;;;;;19.65;10.30;;;;;;;;;;4985347;28;20398;-75
2023/03/02 13:20:13;;;;;;;18.17;10.02;;;;;;;;;;5001359;28;20049;-74
2023/03/02 13:22:39;;;;;;;19.65;10.93;;;;;;;;;;4992111;28;20038;-74
2023/03/02 13:25:07;;;;;;;19.88;10.55;;;;;;;;;;5003331;28;20118;-77
2023/03/02 13:27:32;;;;;;;19.13;10.52;;;;;;;;;;4976795;28;20034;-74
2023/03/02 13:30:21;;;;;;;24.52;11.40;;;;;;;;;;4991748;28;20026;-73
2023/03/02 13:32:46;;;;;;;18.48;11.05;;;;;;;;;;4977847;28;20097;-74
2023/03/02 13:35:23;;;;;;;19.58;10.32;;;;;;;;;;5005983;28;20042;-75
2023/03/02 13:37:55;;;;;;;20.33;11.13;;;;;;;;;;4990914;28;20046;-75
2023/03/02 13:40:21;;;;;;;23.98;11.32;;;;;;;;;;4981562;28;20034;-75
2023/03/02 13:42:46;;;;;;;28.58;11.35;;;;;;;;;;5008552;28;20611;-77
2023/03/02 13:45:20;;;;;;;20.17;11.13;;;;;;;;;;5003628;28;20494;-76
2023/03/02 13:47:45;;;;;;;22.50;10.60;;;;;;;;;;5008849;28;20054;-78
2023/03/02 13:50:26;;;;;;;18.23;10.40;;;;;;;;;;4999341;28;20038;-76
2023/03/02 13:52:57;;;;;;;17.58;9.52;;;;;;;;;;4990663;28;20038;-76
2023/03/02 13:55:23;;;;;;;17.58;10.00;;;;;;;;;;4983079;28;20485;-78
2023/03/02 13:57:50;;;;;;;18.70;10.27;;;;;;;;;;4992121;28;20046;-76
2023/03/02 14:00:19;;;;;;;18.52;10.07;;;;;;;;;;4984916;28;20048;-76
2023/03/02 14:02:46;;;;;;;22.58;11.23;;;;;;;;;;4989742;28;20038;-77
2023/03/02 14:05:20;;;;;;;15.57;8.75;;;;;;;;;;4992721;28;20043;-77
2023/03/02 14:07:46;;;;;;;19.25;10.40;;;;;;;;;;4994934;28;20054;-77
2023/03/02 14:10:14;;;;;;;15.50;8.82;;;;;;;;;;5000885;28;20061;-77
2023/03/02 14:12:41;;;;;;;20.20;10.77;;;;;;;;;;4977824;28;20076;-77
2023/03/02 14:15:09;;;;;;;17.10;9.10;;;;;;;;;;4984311;28;20588;-76
2023/03/02 14:17:35;;;;;;;16.60;9.30;;;;;;;;;;4973688;28;20030;-77
2023/03/02 14:20:00;;;;;;;15.70;8.65;;;;;;;;;;4990599;28;20112;-77
2023/03/02 14:22:28;;;;;;;16.40;8.75;;;;;;;;;;4982670;28;20129;-77
2023/03/02 14:24:53;;;;;;;15.90;8.35;;;;;;;;;;4981119;28;20104;-77
2023/03/02 14:27:19;;;;;;;17.63;8.40;;;;;;;;;;4983220;28;20065;-76
2023/03/02 14:29:45;;;;;;;13.98;7.80;;;;;;;;;;4985548;28;20121;-77
2023/03/02 14:32:12;;;;;;;16.08;8.40;;;;;;;;;;4988000;28;20117;-77
2023/03/02 14:34:38;;;;;;;14.32;8.07;;;;;;;;;;4988603;28;20042;-76